sensor_id;sensor_type;location;lat;lon;timestamp;temperature;humidity
12704;DHT22;6416;52.182;7.650;2022-12-29T00:00:35;12.60;86.20
12704;DHT22;6416;52.182;7.650;2022-12-29T00:03:01;12.60;86.50
12704;DHT22;6416;52.182;7.650;2022-12-29T00:05:26;12.60;86.70
12704;DHT22;6416;52.182;7.650;2022-12-29T00:07:52;12.60;86.80
12704;DHT22;6416;52.182;7.650;2022-12-29T00:10:17;12.60;87.00
12704;DHT22;6416;52.182;7.650;2022-12-29T00:12:43;12.70;87.10
12704;DHT22;6416;52.182;7.650;2022-12-29T00:15:08;12.70;87.10
12704;DHT22;6416;52.182;7.650;2022-12-29T00:17:34;12.80;87.20
12704;DHT22;6416;52.182;7.650;2022-12-29T00:19:59;12.80;87.30
12704;DHT22;6416;52.182;7.650;2022-12-29T00:22:25;12.90;87.30
12704;DHT22;6416;52.182;7.650;2022-12-29T00:24:50;12.90;87.20
12704;DHT22;6416;52.182;7.650;2022-12-29T00:27:16;12.90;87.30
12704;DHT22;6416;52.182;7.650;2022-12-29T00:29:41;12.90;87.20
12704;DHT22;6416;52.182;7.650;2022-12-29T00:32:09;13.00;87.40
12704;DHT22;6416;52.182;7.650;2022-12-29T00:34:35;13.00;87.30
12704;DHT22;6416;52.182;7.650;2022-12-29T00:37:00;13.10;87.10
12704;DHT22;6416;52.182;7.650;2022-12-29T00:39:26;13.00;87.00
12704;DHT22;6416;52.182;7.650;2022-12-29T00:41:51;13.10;87.10
12704;DHT22;6416;52.182;7.650;2022-12-29T00:44:17;13.10;87.80
12704;DHT22;6416;52.182;7.650;2022-12-29T00:46:43;13.10;87.00
12704;DHT22;6416;52.182;7.650;2022-12-29T00:49:10;13.10;86.80
12704;DHT22;6416;52.182;7.650;2022-12-29T00:51:36;13.10;86.60
12704;DHT22;6416;52.182;7.650;2022-12-29T00:54:01;13.20;86.60
12704;DHT22;6416;52.182;7.650;2022-12-29T00:56:27;13.20;86.50
12704;DHT22;6416;52.182;7.650;2022-12-29T00:58:52;13.20;86.50
12704;DHT22;6416;52.182;7.650;2022-12-29T01:01:18;13.20;86.50
12704;DHT22;6416;52.182;7.650;2022-12-29T01:03:43;13.20;86.20
12704;DHT22;6416;52.182;7.650;2022-12-29T01:06:10;13.10;86.20
12704;DHT22;6416;52.182;7.650;2022-12-29T01:08:35;13.10;86.50
12704;DHT22;6416;52.182;7.650;2022-12-29T01:11:03;13.10;86.60
12704;DHT22;6416;52.182;7.650;2022-12-29T01:13:29;13.20;86.60
12704;DHT22;6416;52.182;7.650;2022-12-29T01:15:55;13.20;86.80
12704;DHT22;6416;52.182;7.650;2022-12-29T01:18:22;13.20;86.80
12704;DHT22;6416;52.182;7.650;2022-12-29T01:20:48;13.20;86.70
12704;DHT22;6416;52.182;7.650;2022-12-29T01:23:13;13.20;86.40
12704;DHT22;6416;52.182;7.650;2022-12-29T01:25:39;13.20;86.50
12704;DHT22;6416;52.182;7.650;2022-12-29T01:28:04;13.20;86.40
12704;DHT22;6416;52.182;7.650;2022-12-29T01:30:30;13.20;86.40
12704;DHT22;6416;52.182;7.650;2022-12-29T01:32:57;13.20;86.50
12704;DHT22;6416;52.182;7.650;2022-12-29T01:35:22;13.20;86.60
12704;DHT22;6416;52.182;7.650;2022-12-29T01:37:48;13.20;86.60
12704;DHT22;6416;52.182;7.650;2022-12-29T01:40:13;13.20;86.70
12704;DHT22;6416;52.182;7.650;2022-12-29T01:42:39;13.20;86.70
12704;DHT22;6416;52.182;7.650;2022-12-29T01:45:12;13.20;86.90
12704;DHT22;6416;52.182;7.650;2022-12-29T01:50:20;13.20;87.10
12704;DHT22;6416;52.182;7.650;2022-12-29T01:52:54;13.20;87.00
12704;DHT22;6416;52.182;7.650;2022-12-29T01:55:21;13.20;87.20
12704;DHT22;6416;52.182;7.650;2022-12-29T01:57:49;13.20;87.30
12704;DHT22;6416;52.182;7.650;2022-12-29T02:00:16;13.20;87.40
12704;DHT22;6416;52.182;7.650;2022-12-29T02:03:02;13.20;87.50
12704;DHT22;6416;52.182;7.650;2022-12-29T02:05:32;13.20;87.50
12704;DHT22;6416;52.182;7.650;2022-12-29T02:08:00;13.20;87.50
12704;DHT22;6416;52.182;7.650;2022-12-29T02:10:28;13.20;87.60
12704;DHT22;6416;52.182;7.650;2022-12-29T02:12:55;13.20;87.70
12704;DHT22;6416;52.182;7.650;2022-12-29T02:18:17;13.20;87.80
12704;DHT22;6416;52.182;7.650;2022-12-29T02:31:44;13.20;87.90
12704;DHT22;6416;52.182;7.650;2022-12-29T02:37:11;13.30;87.80
12704;DHT22;6416;52.182;7.650;2022-12-29T02:42:46;13.30;88.10
12704;DHT22;6416;52.182;7.650;2022-12-29T02:45:31;13.30;88.00
12704;DHT22;6416;52.182;7.650;2022-12-29T02:48:28;13.30;88.20
12704;DHT22;6416;52.182;7.650;2022-12-29T02:51:09;13.30;88.30
12704;DHT22;6416;52.182;7.650;2022-12-29T02:53:38;13.40;88.10
12704;DHT22;6416;52.182;7.650;2022-12-29T02:56:04;13.30;88.00
12704;DHT22;6416;52.182;7.650;2022-12-29T02:58:30;13.40;88.10
12704;DHT22;6416;52.182;7.650;2022-12-29T03:06:56;13.40;88.00
12704;DHT22;6416;52.182;7.650;2022-12-29T03:12:30;13.40;87.90
12704;DHT22;6416;52.182;7.650;2022-12-29T03:15:02;13.40;87.40
12704;DHT22;6416;52.182;7.650;2022-12-29T03:17:38;13.50;87.80
12704;DHT22;6416;52.182;7.650;2022-12-29T03:20:08;13.40;87.80
12704;DHT22;6416;52.182;7.650;2022-12-29T03:22:38;13.50;87.50
12704;DHT22;6416;52.182;7.650;2022-12-29T03:25:25;13.40;87.40
12704;DHT22;6416;52.182;7.650;2022-12-29T03:27:57;13.50;86.80
12704;DHT22;6416;52.182;7.650;2022-12-29T03:30:24;13.50;87.10
12704;DHT22;6416;52.182;7.650;2022-12-29T03:32:54;13.50;87.30
12704;DHT22;6416;52.182;7.650;2022-12-29T03:35:22;13.50;87.30
12704;DHT22;6416;52.182;7.650;2022-12-29T03:37:59;13.50;87.30
12704;DHT22;6416;52.182;7.650;2022-12-29T03:40:28;13.50;87.40
12704;DHT22;6416;52.182;7.650;2022-12-29T03:42:54;13.50;87.30
12704;DHT22;6416;52.182;7.650;2022-12-29T03:45:20;13.50;87.20
12704;DHT22;6416;52.182;7.650;2022-12-29T03:47:46;13.60;87.40
12704;DHT22;6416;52.182;7.650;2022-12-29T03:50:13;13.60;87.40
12704;DHT22;6416;52.182;7.650;2022-12-29T03:52:38;13.60;87.30
12704;DHT22;6416;52.182;7.650;2022-12-29T03:55:04;13.70;87.30
12704;DHT22;6416;52.182;7.650;2022-12-29T03:57:30;13.70;87.20
12704;DHT22;6416;52.182;7.650;2022-12-29T03:59:55;13.70;87.30
12704;DHT22;6416;52.182;7.650;2022-12-29T04:02:21;13.80;87.30
12704;DHT22;6416;52.182;7.650;2022-12-29T04:04:46;13.80;87.00
12704;DHT22;6416;52.182;7.650;2022-12-29T04:07:12;13.80;87.00
12704;DHT22;6416;52.182;7.650;2022-12-29T04:09:37;13.80;86.70
12704;DHT22;6416;52.182;7.650;2022-12-29T04:12:03;13.90;86.80
12704;DHT22;6416;52.182;7.650;2022-12-29T04:14:28;13.90;86.70
12704;DHT22;6416;52.182;7.650;2022-12-29T04:16:54;13.90;86.70
12704;DHT22;6416;52.182;7.650;2022-12-29T04:19:19;13.90;86.30
12704;DHT22;6416;52.182;7.650;2022-12-29T04:21:45;14.00;86.50
12704;DHT22;6416;52.182;7.650;2022-12-29T04:24:10;14.00;86.10
12704;DHT22;6416;52.182;7.650;2022-12-29T04:26:36;14.00;86.10
12704;DHT22;6416;52.182;7.650;2022-12-29T04:29:01;14.00;85.50
12704;DHT22;6416;52.182;7.650;2022-12-29T04:31:27;14.00;85.70
12704;DHT22;6416;52.182;7.650;2022-12-29T04:33:52;14.10;85.50
12704;DHT22;6416;52.182;7.650;2022-12-29T04:36:17;14.10;85.40
12704;DHT22;6416;52.182;7.650;2022-12-29T04:38:43;14.10;85.20
12704;DHT22;6416;52.182;7.650;2022-12-29T04:41:08;14.10;84.80
12704;DHT22;6416;52.182;7.650;2022-12-29T04:43:34;14.10;84.60
12704;DHT22;6416;52.182;7.650;2022-12-29T04:45:59;14.00;84.40
12704;DHT22;6416;52.182;7.650;2022-12-29T04:48:25;14.00;84.60
12704;DHT22;6416;52.182;7.650;2022-12-29T04:50:50;14.00;84.70
12704;DHT22;6416;52.182;7.650;2022-12-29T04:53:17;14.00;84.90
12704;DHT22;6416;52.182;7.650;2022-12-29T04:55:42;14.00;84.70
12704;DHT22;6416;52.182;7.650;2022-12-29T04:58:08;14.00;84.60
12704;DHT22;6416;52.182;7.650;2022-12-29T05:00:33;13.90;84.40
12704;DHT22;6416;52.182;7.650;2022-12-29T05:02:59;13.90;84.20
12704;DHT22;6416;52.182;7.650;2022-12-29T05:05:25;13.90;84.20
12704;DHT22;6416;52.182;7.650;2022-12-29T05:07:50;13.80;84.10
12704;DHT22;6416;52.182;7.650;2022-12-29T05:10:16;13.80;84.30
12704;DHT22;6416;52.182;7.650;2022-12-29T05:12:41;13.70;84.20
12704;DHT22;6416;52.182;7.650;2022-12-29T05:15:08;13.70;84.30
12704;DHT22;6416;52.182;7.650;2022-12-29T05:17:33;13.70;84.40
12704;DHT22;6416;52.182;7.650;2022-12-29T05:19:59;13.60;84.50
12704;DHT22;6416;52.182;7.650;2022-12-29T05:22:25;13.60;84.60
12704;DHT22;6416;52.182;7.650;2022-12-29T05:24:50;13.60;84.70
12704;DHT22;6416;52.182;7.650;2022-12-29T05:27:16;13.50;84.70
12704;DHT22;6416;52.182;7.650;2022-12-29T05:29:41;13.50;84.70
12704;DHT22;6416;52.182;7.650;2022-12-29T05:32:07;13.40;84.70
12704;DHT22;6416;52.182;7.650;2022-12-29T05:34:32;13.40;84.80
12704;DHT22;6416;52.182;7.650;2022-12-29T05:36:58;13.40;84.80
12704;DHT22;6416;52.182;7.650;2022-12-29T05:39:23;13.30;84.80
12704;DHT22;6416;52.182;7.650;2022-12-29T05:41:49;13.30;84.90
12704;DHT22;6416;52.182;7.650;2022-12-29T05:44:14;13.30;85.10
12704;DHT22;6416;52.182;7.650;2022-12-29T05:46:40;13.20;85.10
12704;DHT22;6416;52.182;7.650;2022-12-29T05:49:06;13.20;85.20
12704;DHT22;6416;52.182;7.650;2022-12-29T05:51:31;13.20;85.20
12704;DHT22;6416;52.182;7.650;2022-12-29T05:53:57;13.20;85.40
12704;DHT22;6416;52.182;7.650;2022-12-29T05:56:23;13.20;85.50
12704;DHT22;6416;52.182;7.650;2022-12-29T05:58:48;13.10;85.30
12704;DHT22;6416;52.182;7.650;2022-12-29T06:01:13;13.10;85.30
12704;DHT22;6416;52.182;7.650;2022-12-29T06:03:39;13.00;85.10
12704;DHT22;6416;52.182;7.650;2022-12-29T06:06:05;13.10;85.40
12704;DHT22;6416;52.182;7.650;2022-12-29T06:08:30;13.00;85.40
12704;DHT22;6416;52.182;7.650;2022-12-29T06:10:56;13.00;85.30
12704;DHT22;6416;52.182;7.650;2022-12-29T06:13:21;13.00;85.40
12704;DHT22;6416;52.182;7.650;2022-12-29T06:15:48;13.00;85.30
12704;DHT22;6416;52.182;7.650;2022-12-29T06:18:14;12.90;84.80
12704;DHT22;6416;52.182;7.650;2022-12-29T06:20:40;12.90;84.50
12704;DHT22;6416;52.182;7.650;2022-12-29T06:23:05;12.90;84.00
12704;DHT22;6416;52.182;7.650;2022-12-29T06:25:31;12.80;83.70
12704;DHT22;6416;52.182;7.650;2022-12-29T06:27:57;12.80;83.50
12704;DHT22;6416;52.182;7.650;2022-12-29T06:30:22;12.70;83.20
12704;DHT22;6416;52.182;7.650;2022-12-29T06:32:48;12.70;83.30
12704;DHT22;6416;52.182;7.650;2022-12-29T06:35:13;12.60;83.20
12704;DHT22;6416;52.182;7.650;2022-12-29T06:37:39;12.60;84.10
12704;DHT22;6416;52.182;7.650;2022-12-29T06:40:05;12.60;84.70
12704;DHT22;6416;52.182;7.650;2022-12-29T06:42:30;12.50;85.20
12704;DHT22;6416;52.182;7.650;2022-12-29T06:44:56;12.60;85.50
12704;DHT22;6416;52.182;7.650;2022-12-29T06:47:21;12.60;85.70
12704;DHT22;6416;52.182;7.650;2022-12-29T06:49:47;12.60;85.70
12704;DHT22;6416;52.182;7.650;2022-12-29T06:52:12;12.60;85.70
12704;DHT22;6416;52.182;7.650;2022-12-29T06:54:38;12.60;85.50
12704;DHT22;6416;52.182;7.650;2022-12-29T06:57:03;12.70;85.30
12704;DHT22;6416;52.182;7.650;2022-12-29T06:59:28;12.70;85.40
12704;DHT22;6416;52.182;7.650;2022-12-29T07:01:54;12.70;85.20
12704;DHT22;6416;52.182;7.650;2022-12-29T07:04:20;12.70;84.70
12704;DHT22;6416;52.182;7.650;2022-12-29T07:06:45;12.70;84.20
12704;DHT22;6416;52.182;7.650;2022-12-29T07:09:11;12.60;84.50
12704;DHT22;6416;52.182;7.650;2022-12-29T07:11:36;12.60;83.40
12704;DHT22;6416;52.182;7.650;2022-12-29T07:14:02;12.60;83.20
12704;DHT22;6416;52.182;7.650;2022-12-29T07:16:28;12.50;83.00
12704;DHT22;6416;52.182;7.650;2022-12-29T07:18:54;12.50;82.90
12704;DHT22;6416;52.182;7.650;2022-12-29T07:21:20;12.40;82.90
12704;DHT22;6416;52.182;7.650;2022-12-29T07:23:45;12.40;82.60
12704;DHT22;6416;52.182;7.650;2022-12-29T07:26:13;12.30;82.60
12704;DHT22;6416;52.182;7.650;2022-12-29T07:28:38;12.30;82.70
12704;DHT22;6416;52.182;7.650;2022-12-29T07:31:05;12.30;82.90
12704;DHT22;6416;52.182;7.650;2022-12-29T07:33:31;12.30;83.20
12704;DHT22;6416;52.182;7.650;2022-12-29T07:35:57;12.20;83.30
12704;DHT22;6416;52.182;7.650;2022-12-29T07:38:23;12.20;83.30
12704;DHT22;6416;52.182;7.650;2022-12-29T07:40:48;12.20;83.40
12704;DHT22;6416;52.182;7.650;2022-12-29T07:43:14;12.20;83.20
12704;DHT22;6416;52.182;7.650;2022-12-29T07:45:39;12.20;83.30
12704;DHT22;6416;52.182;7.650;2022-12-29T07:48:05;12.20;83.30
12704;DHT22;6416;52.182;7.650;2022-12-29T07:50:31;12.20;83.20
12704;DHT22;6416;52.182;7.650;2022-12-29T07:52:56;12.10;83.20
12704;DHT22;6416;52.182;7.650;2022-12-29T07:55:22;12.10;83.20
12704;DHT22;6416;52.182;7.650;2022-12-29T07:57:47;12.10;83.10
12704;DHT22;6416;52.182;7.650;2022-12-29T08:00:13;12.10;83.30
12704;DHT22;6416;52.182;7.650;2022-12-29T08:02:39;12.10;83.50
12704;DHT22;6416;52.182;7.650;2022-12-29T08:05:05;12.10;83.40
12704;DHT22;6416;52.182;7.650;2022-12-29T08:07:30;12.10;83.50
12704;DHT22;6416;52.182;7.650;2022-12-29T08:09:56;12.20;83.70
12704;DHT22;6416;52.182;7.650;2022-12-29T08:12:21;12.10;83.40
12704;DHT22;6416;52.182;7.650;2022-12-29T08:14:47;12.10;83.50
12704;DHT22;6416;52.182;7.650;2022-12-29T08:17:12;12.10;83.30
12704;DHT22;6416;52.182;7.650;2022-12-29T08:19:38;12.20;83.30
12704;DHT22;6416;52.182;7.650;2022-12-29T08:22:03;12.20;83.20
12704;DHT22;6416;52.182;7.650;2022-12-29T08:24:29;12.20;83.60
12704;DHT22;6416;52.182;7.650;2022-12-29T08:26:54;12.20;84.10
12704;DHT22;6416;52.182;7.650;2022-12-29T08:29:20;12.20;84.10
12704;DHT22;6416;52.182;7.650;2022-12-29T08:31:45;12.30;84.60
12704;DHT22;6416;52.182;7.650;2022-12-29T08:34:11;12.30;84.80
12704;DHT22;6416;52.182;7.650;2022-12-29T08:36:36;12.40;85.60
12704;DHT22;6416;52.182;7.650;2022-12-29T08:39:02;12.50;85.60
12704;DHT22;6416;52.182;7.650;2022-12-29T08:41:27;12.60;85.40
12704;DHT22;6416;52.182;7.650;2022-12-29T08:43:53;12.60;85.10
12704;DHT22;6416;52.182;7.650;2022-12-29T08:46:18;12.70;85.00
12704;DHT22;6416;52.182;7.650;2022-12-29T08:48:44;12.70;84.70
12704;DHT22;6416;52.182;7.650;2022-12-29T08:51:10;12.80;84.70
12704;DHT22;6416;52.182;7.650;2022-12-29T08:53:36;12.80;84.90
12704;DHT22;6416;52.182;7.650;2022-12-29T08:56:02;12.90;84.90
12704;DHT22;6416;52.182;7.650;2022-12-29T08:58:28;12.90;84.30
12704;DHT22;6416;52.182;7.650;2022-12-29T09:00:54;13.00;84.10
12704;DHT22;6416;52.182;7.650;2022-12-29T09:03:21;13.00;84.10
12704;DHT22;6416;52.182;7.650;2022-12-29T09:05:51;13.10;84.20
12704;DHT22;6416;52.182;7.650;2022-12-29T09:08:17;13.10;84.10
12704;DHT22;6416;52.182;7.650;2022-12-29T09:10:43;13.20;84.60
12704;DHT22;6416;52.182;7.650;2022-12-29T09:13:09;13.40;86.20
12704;DHT22;6416;52.182;7.650;2022-12-29T09:15:34;13.50;85.80
12704;DHT22;6416;52.182;7.650;2022-12-29T09:18:00;13.70;85.30
12704;DHT22;6416;52.182;7.650;2022-12-29T09:20:25;13.90;85.90
12704;DHT22;6416;52.182;7.650;2022-12-29T09:22:51;14.20;87.00
12704;DHT22;6416;52.182;7.650;2022-12-29T09:25:16;14.60;87.40
12704;DHT22;6416;52.182;7.650;2022-12-29T09:27:42;14.90;86.70
12704;DHT22;6416;52.182;7.650;2022-12-29T09:30:10;15.30;86.40
12704;DHT22;6416;52.182;7.650;2022-12-29T09:32:36;15.70;87.40
12704;DHT22;6416;52.182;7.650;2022-12-29T09:35:01;16.00;86.40
12704;DHT22;6416;52.182;7.650;2022-12-29T09:37:27;16.40;86.80
12704;DHT22;6416;52.182;7.650;2022-12-29T09:39:53;16.80;86.80
12704;DHT22;6416;52.182;7.650;2022-12-29T09:42:24;17.20;86.70
12704;DHT22;6416;52.182;7.650;2022-12-29T09:47:30;17.70;81.10
12704;DHT22;6416;52.182;7.650;2022-12-29T09:50:03;17.90;82.90
12704;DHT22;6416;52.182;7.650;2022-12-29T09:52:43;18.10;79.50
12704;DHT22;6416;52.182;7.650;2022-12-29T09:55:16;18.20;77.80
12704;DHT22;6416;52.182;7.650;2022-12-29T09:57:46;18.30;78.80
12704;DHT22;6416;52.182;7.650;2022-12-29T10:00:15;18.40;79.10
12704;DHT22;6416;52.182;7.650;2022-12-29T10:03:15;18.60;79.30
12704;DHT22;6416;52.182;7.650;2022-12-29T10:05:57;18.80;76.40
12704;DHT22;6416;52.182;7.650;2022-12-29T10:08:44;19.10;78.60
12704;DHT22;6416;52.182;7.650;2022-12-29T10:25:18;20.50;73.00
12704;DHT22;6416;52.182;7.650;2022-12-29T10:27:48;20.60;73.00
12704;DHT22;6416;52.182;7.650;2022-12-29T10:30:14;20.70;72.50
12704;DHT22;6416;52.182;7.650;2022-12-29T10:32:47;20.60;73.30
12704;DHT22;6416;52.182;7.650;2022-12-29T10:35:21;20.60;73.10
12704;DHT22;6416;52.182;7.650;2022-12-29T10:37:56;20.50;71.60
12704;DHT22;6416;52.182;7.650;2022-12-29T10:40:43;20.40;71.10
12704;DHT22;6416;52.182;7.650;2022-12-29T10:45:48;20.00;66.60
12704;DHT22;6416;52.182;7.650;2022-12-29T10:48:22;19.80;68.30
12704;DHT22;6416;52.182;7.650;2022-12-29T10:50:50;19.50;66.20
12704;DHT22;6416;52.182;7.650;2022-12-29T10:53:25;19.20;68.20
12704;DHT22;6416;52.182;7.650;2022-12-29T10:55:52;18.90;67.50
12704;DHT22;6416;52.182;7.650;2022-12-29T10:58:19;18.60;67.60
12704;DHT22;6416;52.182;7.650;2022-12-29T11:00:51;18.40;68.50
12704;DHT22;6416;52.182;7.650;2022-12-29T11:08:26;17.80;67.60
12704;DHT22;6416;52.182;7.650;2022-12-29T11:11:01;17.60;68.70
12704;DHT22;6416;52.182;7.650;2022-12-29T11:13:30;17.50;68.40
12704;DHT22;6416;52.182;7.650;2022-12-29T11:15:56;17.30;70.30
12704;DHT22;6416;52.182;7.650;2022-12-29T11:18:47;17.20;69.90
12704;DHT22;6416;52.182;7.650;2022-12-29T11:21:34;17.20;67.00
12704;DHT22;6416;52.182;7.650;2022-12-29T11:24:04;17.10;67.70
12704;DHT22;6416;52.182;7.650;2022-12-29T11:26:32;17.00;69.80
12704;DHT22;6416;52.182;7.650;2022-12-29T11:29:21;16.90;71.10
12704;DHT22;6416;52.182;7.650;2022-12-29T11:31:52;17.00;69.90
12704;DHT22;6416;52.182;7.650;2022-12-29T11:36:46;17.00;72.10
12704;DHT22;6416;52.182;7.650;2022-12-29T11:42:04;16.90;67.90
12704;DHT22;6416;52.182;7.650;2022-12-29T11:44:36;16.80;70.90
12704;DHT22;6416;52.182;7.650;2022-12-29T11:47:02;16.70;70.60
12704;DHT22;6416;52.182;7.650;2022-12-29T11:49:29;16.60;70.90
12704;DHT22;6416;52.182;7.650;2022-12-29T11:51:55;16.50;71.20
12704;DHT22;6416;52.182;7.650;2022-12-29T11:54:36;16.40;71.20
12704;DHT22;6416;52.182;7.650;2022-12-29T11:57:14;16.30;69.80
12704;DHT22;6416;52.182;7.650;2022-12-29T11:59:54;16.20;71.00
12704;DHT22;6416;52.182;7.650;2022-12-29T12:02:22;16.20;72.40
12704;DHT22;6416;52.182;7.650;2022-12-29T12:04:53;16.10;72.10
12704;DHT22;6416;52.182;7.650;2022-12-29T12:07:38;16.10;72.60
12704;DHT22;6416;52.182;7.650;2022-12-29T12:10:05;16.00;72.90
12704;DHT22;6416;52.182;7.650;2022-12-29T12:12:40;15.90;73.00
12704;DHT22;6416;52.182;7.650;2022-12-29T12:15:16;15.90;72.90
12704;DHT22;6416;52.182;7.650;2022-12-29T12:17:57;15.80;72.70
12704;DHT22;6416;52.182;7.650;2022-12-29T12:23:27;15.60;72.60
12704;DHT22;6416;52.182;7.650;2022-12-29T12:26:14;15.50;73.40
12704;DHT22;6416;52.182;7.650;2022-12-29T12:29:01;15.50;72.80
12704;DHT22;6416;52.182;7.650;2022-12-29T12:31:53;15.40;73.90
12704;DHT22;6416;52.182;7.650;2022-12-29T12:34:25;15.40;73.10
12704;DHT22;6416;52.182;7.650;2022-12-29T12:37:21;15.30;74.00
12704;DHT22;6416;52.182;7.650;2022-12-29T12:40:22;15.30;72.50
12704;DHT22;6416;52.182;7.650;2022-12-29T12:51:29;15.20;73.60
12704;DHT22;6416;52.182;7.650;2022-12-29T12:54:29;15.20;73.60
12704;DHT22;6416;52.182;7.650;2022-12-29T12:59:45;15.30;74.40
12704;DHT22;6416;52.182;7.650;2022-12-29T13:02:40;15.40;77.00
12704;DHT22;6416;52.182;7.650;2022-12-29T13:10:56;15.60;74.50
12704;DHT22;6416;52.182;7.650;2022-12-29T13:16:13;15.60;75.40
12704;DHT22;6416;52.182;7.650;2022-12-29T13:18:53;15.60;74.30
12704;DHT22;6416;52.182;7.650;2022-12-29T13:21:45;15.60;75.50
12704;DHT22;6416;52.182;7.650;2022-12-29T13:37:58;15.60;74.50
12704;DHT22;6416;52.182;7.650;2022-12-29T13:40:28;15.60;74.30
12704;DHT22;6416;52.182;7.650;2022-12-29T13:42:58;15.50;74.30
12704;DHT22;6416;52.182;7.650;2022-12-29T13:45:26;15.50;74.70
12704;DHT22;6416;52.182;7.650;2022-12-29T13:47:58;15.40;74.80
12704;DHT22;6416;52.182;7.650;2022-12-29T13:50:28;15.40;74.20
12704;DHT22;6416;52.182;7.650;2022-12-29T13:55:49;15.40;74.40
12704;DHT22;6416;52.182;7.650;2022-12-29T13:58:50;15.30;72.20
12704;DHT22;6416;52.182;7.650;2022-12-29T14:01:40;15.30;73.40
12704;DHT22;6416;52.182;7.650;2022-12-29T14:04:24;15.30;74.70
12704;DHT22;6416;52.182;7.650;2022-12-29T14:07:16;15.30;73.40
12704;DHT22;6416;52.182;7.650;2022-12-29T14:09:54;15.30;72.00
12704;DHT22;6416;52.182;7.650;2022-12-29T14:14:51;15.20;73.70
12704;DHT22;6416;52.182;7.650;2022-12-29T14:17:20;15.20;74.20
12704;DHT22;6416;52.182;7.650;2022-12-29T14:19:47;15.10;73.70
12704;DHT22;6416;52.182;7.650;2022-12-29T14:22:23;15.10;73.90
12704;DHT22;6416;52.182;7.650;2022-12-29T14:24:49;15.00;72.60
12704;DHT22;6416;52.182;7.650;2022-12-29T14:34:53;14.80;73.70
12704;DHT22;6416;52.182;7.650;2022-12-29T14:42:30;14.80;72.70
12704;DHT22;6416;52.182;7.650;2022-12-29T14:45:05;14.70;74.70
12704;DHT22;6416;52.182;7.650;2022-12-29T14:47:32;14.70;74.10
12704;DHT22;6416;52.182;7.650;2022-12-29T14:50:05;14.70;74.30
12704;DHT22;6416;52.182;7.650;2022-12-29T14:52:31;14.70;73.30
12704;DHT22;6416;52.182;7.650;2022-12-29T14:55:28;14.70;74.80
12704;DHT22;6416;52.182;7.650;2022-12-29T14:57:50;14.60;73.90
12704;DHT22;6416;52.182;7.650;2022-12-29T15:00:22;14.60;73.60
12704;DHT22;6416;52.182;7.650;2022-12-29T15:02:54;14.50;74.50
12704;DHT22;6416;52.182;7.650;2022-12-29T15:05:40;14.50;74.40
12704;DHT22;6416;52.182;7.650;2022-12-29T15:08:07;14.50;74.10
12704;DHT22;6416;52.182;7.650;2022-12-29T15:10:37;14.40;74.50
12704;DHT22;6416;52.182;7.650;2022-12-29T15:13:09;14.40;74.20
12704;DHT22;6416;52.182;7.650;2022-12-29T15:15:38;14.40;74.30
12704;DHT22;6416;52.182;7.650;2022-12-29T15:20:57;14.40;73.30
12704;DHT22;6416;52.182;7.650;2022-12-29T15:23:24;14.30;73.90
12704;DHT22;6416;52.182;7.650;2022-12-29T15:25:58;14.30;74.40
12704;DHT22;6416;52.182;7.650;2022-12-29T15:28:25;14.20;74.00
12704;DHT22;6416;52.182;7.650;2022-12-29T15:30:55;14.20;74.80
12704;DHT22;6416;52.182;7.650;2022-12-29T15:33:23;14.20;74.00
12704;DHT22;6416;52.182;7.650;2022-12-29T15:35:51;14.20;74.50
12704;DHT22;6416;52.182;7.650;2022-12-29T15:38:22;14.20;74.50
12704;DHT22;6416;52.182;7.650;2022-12-29T15:40:53;14.00;74.10
12704;DHT22;6416;52.182;7.650;2022-12-29T15:46:00;14.10;74.30
12704;DHT22;6416;52.182;7.650;2022-12-29T15:48:26;14.10;75.70
12704;DHT22;6416;52.182;7.650;2022-12-29T15:50:52;14.00;75.00
12704;DHT22;6416;52.182;7.650;2022-12-29T15:53:22;14.00;75.00
12704;DHT22;6416;52.182;7.650;2022-12-29T15:55:48;13.90;74.80
12704;DHT22;6416;52.182;7.650;2022-12-29T15:58:23;13.80;74.80
12704;DHT22;6416;52.182;7.650;2022-12-29T16:00:54;13.70;74.50
12704;DHT22;6416;52.182;7.650;2022-12-29T16:03:21;13.70;75.30
12704;DHT22;6416;52.182;7.650;2022-12-29T16:06:07;13.60;75.40
12704;DHT22;6416;52.182;7.650;2022-12-29T16:08:36;13.50;75.20
12704;DHT22;6416;52.182;7.650;2022-12-29T16:11:03;13.50;75.80
12704;DHT22;6416;52.182;7.650;2022-12-29T16:13:32;13.40;75.70
12704;DHT22;6416;52.182;7.650;2022-12-29T16:16:22;13.30;75.60
12704;DHT22;6416;52.182;7.650;2022-12-29T16:18:50;13.30;74.90
12704;DHT22;6416;52.182;7.650;2022-12-29T16:21:33;13.20;75.60
12704;DHT22;6416;52.182;7.650;2022-12-29T16:24:08;13.10;75.40
12704;DHT22;6416;52.182;7.650;2022-12-29T16:26:37;13.10;75.50
12704;DHT22;6416;52.182;7.650;2022-12-29T16:29:05;13.00;76.00
12704;DHT22;6416;52.182;7.650;2022-12-29T16:31:36;12.90;76.10
12704;DHT22;6416;52.182;7.650;2022-12-29T16:34:21;12.90;76.30
12704;DHT22;6416;52.182;7.650;2022-12-29T16:39:32;12.80;76.20
12704;DHT22;6416;52.182;7.650;2022-12-29T16:41:58;12.80;76.40
12704;DHT22;6416;52.182;7.650;2022-12-29T16:49:31;12.70;76.90
12704;DHT22;6416;52.182;7.650;2022-12-29T16:51:57;12.70;77.20
12704;DHT22;6416;52.182;7.650;2022-12-29T16:56:55;12.70;77.00
12704;DHT22;6416;52.182;7.650;2022-12-29T16:59:40;12.70;77.60
12704;DHT22;6416;52.182;7.650;2022-12-29T17:02:12;12.70;76.50
12704;DHT22;6416;52.182;7.650;2022-12-29T17:04:38;12.70;77.80
12704;DHT22;6416;52.182;7.650;2022-12-29T17:07:18;12.60;77.80
12704;DHT22;6416;52.182;7.650;2022-12-29T17:09:43;12.70;77.90
12704;DHT22;6416;52.182;7.650;2022-12-29T17:12:17;12.70;78.10
12704;DHT22;6416;52.182;7.650;2022-12-29T17:17:18;12.70;78.30
12704;DHT22;6416;52.182;7.650;2022-12-29T17:19:54;12.70;78.00
12704;DHT22;6416;52.182;7.650;2022-12-29T17:22:25;12.70;78.10
12704;DHT22;6416;52.182;7.650;2022-12-29T17:24:56;12.70;77.70
12704;DHT22;6416;52.182;7.650;2022-12-29T17:27:26;12.70;77.50
12704;DHT22;6416;52.182;7.650;2022-12-29T17:29:55;12.70;77.40
12704;DHT22;6416;52.182;7.650;2022-12-29T17:32:21;12.70;77.50
12704;DHT22;6416;52.182;7.650;2022-12-29T17:34:47;12.60;77.50
12704;DHT22;6416;52.182;7.650;2022-12-29T17:37:30;12.60;77.50
12704;DHT22;6416;52.182;7.650;2022-12-29T17:39:56;12.60;76.30
12704;DHT22;6416;52.182;7.650;2022-12-29T17:42:22;12.60;77.20
12704;DHT22;6416;52.182;7.650;2022-12-29T17:44:47;12.50;77.30
12704;DHT22;6416;52.182;7.650;2022-12-29T17:47:14;12.50;77.40
12704;DHT22;6416;52.182;7.650;2022-12-29T17:49:40;12.50;77.30
12704;DHT22;6416;52.182;7.650;2022-12-29T17:52:05;12.50;77.40
12704;DHT22;6416;52.182;7.650;2022-12-29T17:54:31;12.50;77.60
12704;DHT22;6416;52.182;7.650;2022-12-29T17:56:57;12.50;77.70
12704;DHT22;6416;52.182;7.650;2022-12-29T17:59:22;12.50;77.60
12704;DHT22;6416;52.182;7.650;2022-12-29T18:01:48;12.40;77.50
12704;DHT22;6416;52.182;7.650;2022-12-29T18:04:18;12.40;77.50
12704;DHT22;6416;52.182;7.650;2022-12-29T18:06:45;12.40;77.10
12704;DHT22;6416;52.182;7.650;2022-12-29T18:09:11;12.40;77.50
12704;DHT22;6416;52.182;7.650;2022-12-29T18:11:42;12.40;77.30